sensor_id;sensor_type;location;lat;lon;timestamp;pressure;altitude;pressure_sealevel;temperature;humidity
10474;BME280;5284;50.446;7.904;2023-01-25T00:01:05;100266.78;;;0.51;100.00
10474;BME280;5284;50.446;7.904;2023-01-25T00:06:08;100265.81;;;0.56;100.00
10474;BME280;5284;50.446;7.904;2023-01-25T00:11:11;100267.72;;;0.47;100.00
10474;BME280;5284;50.446;7.904;2023-01-25T00:16:15;100269.41;;;0.51;100.00
10474;BME280;5284;50.446;7.904;2023-01-25T00:21:20;100262.53;;;0.44;100.00
10474;BME280;5284;50.446;7.904;2023-01-25T00:26:23;100263.53;;;0.37;100.00
10474;BME280;5284;50.446;7.904;2023-01-25T00:31:36;100253.78;;;0.43;100.00
10474;BME280;5284;50.446;7.904;2023-01-25T00:36:40;100251.91;;;0.50;100.00
10474;BME280;5284;50.446;7.904;2023-01-25T00:41:44;100245.72;;;0.54;100.00
10474;BME280;5284;50.446;7.904;2023-01-25T00:46:48;100239.63;;;0.52;100.00
10474;BME280;5284;50.446;7.904;2023-01-25T00:51:51;100241.38;;;0.53;100.00
10474;BME280;5284;50.446;7.904;2023-01-25T00:56:55;100233.66;;;0.44;100.00
10474;BME280;5284;50.446;7.904;2023-01-25T01:01:59;100223.06;;;0.48;100.00
10474;BME280;5284;50.446;7.904;2023-01-25T01:07:03;100230.09;;;0.46;100.00
10474;BME280;5284;50.446;7.904;2023-01-25T01:12:06;100230.81;;;0.56;100.00
10474;BME280;5284;50.446;7.904;2023-01-25T01:17:11;100228.19;;;0.56;100.00
10474;BME280;5284;50.446;7.904;2023-01-25T01:22:14;100224.91;;;0.45;100.00
10474;BME280;5284;50.446;7.904;2023-01-25T01:27:17;100229.31;;;0.41;100.00
10474;BME280;5284;50.446;7.904;2023-01-25T01:32:21;100231.03;;;0.44;100.00
10474;BME280;5284;50.446;7.904;2023-01-25T01:37:25;100224.13;;;0.40;100.00
10474;BME280;5284;50.446;7.904;2023-01-25T01:42:28;100224.91;;;0.43;100.00
10474;BME280;5284;50.446;7.904;2023-01-25T01:47:38;100223.25;;;0.39;100.00
10474;BME280;5284;50.446;7.904;2023-01-25T01:52:47;100220.69;;;0.36;100.00
10474;BME280;5284;50.446;7.904;2023-01-25T01:57:52;100223.34;;;0.35;100.00
10474;BME280;5284;50.446;7.904;2023-01-25T02:03:00;100220.69;;;0.36;100.00
10474;BME280;5284;50.446;7.904;2023-01-25T02:08:04;100221.50;;;0.40;100.00
10474;BME280;5284;50.446;7.904;2023-01-25T02:13:09;100224.19;;;0.37;100.00
10474;BME280;5284;50.446;7.904;2023-01-25T02:18:14;100210.13;;;0.39;100.00
10474;BME280;5284;50.446;7.904;2023-01-25T02:23:23;100217.94;;;0.42;100.00
10474;BME280;5284;50.446;7.904;2023-01-25T02:28:30;100217.81;;;0.51;100.00
10474;BME280;5284;50.446;7.904;2023-01-25T02:33:35;100213.59;;;0.41;100.00
10474;BME280;5284;50.446;7.904;2023-01-25T02:38:41;100220.56;;;0.42;100.00
10474;BME280;5284;50.446;7.904;2023-01-25T02:43:46;100216.38;;;0.32;100.00
10474;BME280;5284;50.446;7.904;2023-01-25T02:48:49;100212.84;;;0.35;100.00
10474;BME280;5284;50.446;7.904;2023-01-25T02:53:52;100211.25;;;0.25;100.00
10474;BME280;5284;50.446;7.904;2023-01-25T02:58:57;100192.00;;;0.27;100.00
10474;BME280;5284;50.446;7.904;2023-01-25T03:04:00;100185.88;;;0.27;100.00
10474;BME280;5284;50.446;7.904;2023-01-25T03:09:05;100184.25;;;0.21;100.00
10474;BME280;5284;50.446;7.904;2023-01-25T03:14:09;100182.34;;;0.28;100.00
10474;BME280;5284;50.446;7.904;2023-01-25T03:19:13;100182.25;;;0.34;100.00
10474;BME280;5284;50.446;7.904;2023-01-25T03:24:16;100179.66;;;0.32;100.00
10474;BME280;5284;50.446;7.904;2023-01-25T03:29:23;100173.44;;;0.38;100.00
10474;BME280;5284;50.446;7.904;2023-01-25T03:34:26;100163.81;;;0.38;100.00
10474;BME280;5284;50.446;7.904;2023-01-25T03:39:30;100166.44;;;0.38;100.00
10474;BME280;5284;50.446;7.904;2023-01-25T03:44:35;100162.13;;;0.36;100.00
10474;BME280;5284;50.446;7.904;2023-01-25T03:49:38;100162.13;;;0.34;100.00
10474;BME280;5284;50.446;7.904;2023-01-25T03:54:42;100168.19;;;0.38;100.00
10474;BME280;5284;50.446;7.904;2023-01-25T03:59:48;100156.06;;;0.32;100.00
10474;BME280;5284;50.446;7.904;2023-01-25T04:04:51;100154.34;;;0.30;100.00
10474;BME280;5284;50.446;7.904;2023-01-25T04:09:55;100149.16;;;0.27;100.00
10474;BME280;5284;50.446;7.904;2023-01-25T04:14:59;100147.28;;;0.33;100.00
10474;BME280;5284;50.446;7.904;2023-01-25T04:20:04;100150.72;;;0.37;100.00
10474;BME280;5284;50.446;7.904;2023-01-25T04:25:13;100143.19;;;0.20;100.00
10474;BME280;5284;50.446;7.904;2023-01-25T04:30:23;100134.41;;;0.21;100.00
10474;BME280;5284;50.446;7.904;2023-01-25T04:35:27;100124.84;;;0.19;100.00
10474;BME280;5284;50.446;7.904;2023-01-25T04:40:31;100121.38;;;0.15;100.00
10474;BME280;5284;50.446;7.904;2023-01-25T04:45:35;100125.03;;;0.08;100.00
10474;BME280;5284;50.446;7.904;2023-01-25T04:50:44;100128.34;;;0.19;100.00
10474;BME280;5284;50.446;7.904;2023-01-25T04:55:48;100123.09;;;0.18;100.00
10474;BME280;5284;50.446;7.904;2023-01-25T05:00:52;100117.81;;;0.21;100.00
10474;BME280;5284;50.446;7.904;2023-01-25T05:05:55;100113.53;;;0.15;100.00
10474;BME280;5284;50.446;7.904;2023-01-25T05:10:59;100116.13;;;0.17;100.00
10474;BME280;5284;50.446;7.904;2023-01-25T05:16:11;100113.59;;;0.12;100.00
10474;BME280;5284;50.446;7.904;2023-01-25T05:21:14;100109.16;;;0.16;100.00
10474;BME280;5284;50.446;7.904;2023-01-25T05:26:32;100103.84;;;0.20;100.00
10474;BME280;5284;50.446;7.904;2023-01-25T05:31:55;100097.06;;;0.07;100.00
10474;BME280;5284;50.446;7.904;2023-01-25T05:36:58;100098.72;;;0.13;100.00
10474;BME280;5284;50.446;7.904;2023-01-25T05:42:02;100090.88;;;0.11;100.00
10474;BME280;5284;50.446;7.904;2023-01-25T05:47:06;100083.94;;;0.09;100.00
10474;BME280;5284;50.446;7.904;2023-01-25T05:52:12;100077.00;;;0.06;100.00
10474;BME280;5284;50.446;7.904;2023-01-25T05:57:16;100077.06;;;0.03;100.00
10474;BME280;5284;50.446;7.904;2023-01-25T06:02:20;100082.34;;;0.00;100.00
10474;BME280;5284;50.446;7.904;2023-01-25T06:07:24;100077.88;;;0.07;100.00
10474;BME280;5284;50.446;7.904;2023-01-25T06:12:27;100073.47;;;0.09;100.00
10474;BME280;5284;50.446;7.904;2023-01-25T06:17:33;100071.63;;;0.14;100.00
10474;BME280;5284;50.446;7.904;2023-01-25T06:22:50;100065.50;;;0.13;100.00
10474;BME280;5284;50.446;7.904;2023-01-25T06:27:54;100067.25;;;0.13;100.00
10474;BME280;5284;50.446;7.904;2023-01-25T06:32:58;100084.03;;;0.04;100.00
10474;BME280;5284;50.446;7.904;2023-01-25T06:38:01;100069.88;;;0.13;100.00
10474;BME280;5284;50.446;7.904;2023-01-25T06:43:07;100069.75;;;0.19;100.00
10474;BME280;5284;50.446;7.904;2023-01-25T06:48:12;100074.09;;;0.21;100.00
10474;BME280;5284;50.446;7.904;2023-01-25T06:53:15;100075.13;;;0.13;100.00
10474;BME280;5284;50.446;7.904;2023-01-25T06:58:17;100078.78;;;0.06;100.00
10474;BME280;5284;50.446;7.904;2023-01-25T07:03:22;100073.41;;;0.10;100.00
10474;BME280;5284;50.446;7.904;2023-01-25T07:08:25;100078.59;;;0.13;100.00
10474;BME280;5284;50.446;7.904;2023-01-25T07:13:29;100074.31;;;0.11;100.00
10474;BME280;5284;50.446;7.904;2023-01-25T07:18:34;100074.41;;;0.05;100.00
10474;BME280;5284;50.446;7.904;2023-01-25T07:23:38;100073.53;;;0.06;100.00
10474;BME280;5284;50.446;7.904;2023-01-25T07:28:42;100066.50;;;0.06;100.00
10474;BME280;5284;50.446;7.904;2023-01-25T07:33:48;100064.84;;;0.02;100.00
10474;BME280;5284;50.446;7.904;2023-01-25T07:38:52;100061.31;;;0.03;100.00
10474;BME280;5284;50.446;7.904;2023-01-25T07:43:55;100061.50;;;-0.05;100.00
10474;BME280;5284;50.446;7.904;2023-01-25T07:49:09;100073.66;;;0.00;100.00
10474;BME280;5284;50.446;7.904;2023-01-25T07:54:12;100065.97;;;-0.10;100.00
10474;BME280;5284;50.446;7.904;2023-01-25T07:59:15;100072.84;;;-0.05;100.00
10474;BME280;5284;50.446;7.904;2023-01-25T08:04:19;100067.69;;;-0.09;100.00
10474;BME280;5284;50.446;7.904;2023-01-25T08:09:22;100074.50;;;0.00;100.00
10474;BME280;5284;50.446;7.904;2023-01-25T08:14:25;100072.75;;;-0.01;100.00
10474;BME280;5284;50.446;7.904;2023-01-25T08:19:29;100071.88;;;-0.01;100.00
10474;BME280;5284;50.446;7.904;2023-01-25T08:24:32;100071.88;;;0.00;100.00
10474;BME280;5284;50.446;7.904;2023-01-25T08:29:35;100064.84;;;0.02;100.00
10474;BME280;5284;50.446;7.904;2023-01-25T08:34:40;100066.56;;;0.03;100.00
10474;BME280;5284;50.446;7.904;2023-01-25T08:39:43;100076.03;;;0.10;100.00
10474;BME280;5284;50.446;7.904;2023-01-25T08:44:46;100069.06;;;0.09;100.00
10474;BME280;5284;50.446;7.904;2023-01-25T08:49:50;100064.78;;;0.05;100.00
10474;BME280;5284;50.446;7.904;2023-01-25T08:54:53;100067.22;;;0.14;100.00
10474;BME280;5284;50.446;7.904;2023-01-25T08:59:55;100068.09;;;0.15;100.00
10474;BME280;5284;50.446;7.904;2023-01-25T09:05:00;100048.88;;;0.14;100.00
10474;BME280;5284;50.446;7.904;2023-01-25T09:10:03;100046.97;;;0.22;100.00
10474;BME280;5284;50.446;7.904;2023-01-25T09:15:09;100033.63;;;0.33;100.00
10474;BME280;5284;50.446;7.904;2023-01-25T09:20:14;100034.75;;;0.21;100.00
10474;BME280;5284;50.446;7.904;2023-01-25T09:25:17;100030.56;;;0.13;100.00
10474;BME280;5284;50.446;7.904;2023-01-25T09:30:20;100027.03;;;0.14;100.00
10474;BME280;5284;50.446;7.904;2023-01-25T09:35:46;100033.03;;;0.20;100.00
10474;BME280;5284;50.446;7.904;2023-01-25T09:40:57;100032.66;;;0.38;100.00
10474;BME280;5284;50.446;7.904;2023-01-25T09:46:15;100024.63;;;0.44;100.00
10474;BME280;5284;50.446;7.904;2023-01-25T09:51:25;100017.50;;;0.52;100.00
10474;BME280;5284;50.446;7.904;2023-01-25T09:56:32;100017.44;;;0.54;100.00
10474;BME280;5284;50.446;7.904;2023-01-25T10:01:46;100008.94;;;0.43;100.00
10474;BME280;5284;50.446;7.904;2023-01-25T10:06:53;100000.91;;;0.50;100.00
10474;BME280;5284;50.446;7.904;2023-01-25T10:12:04;99994.72;;;0.54;100.00
10474;BME280;5284;50.446;7.904;2023-01-25T10:17:12;99985.69;;;0.66;100.00
10474;BME280;5284;50.446;7.904;2023-01-25T10:22:20;99980.81;;;0.49;100.00
10474;BME280;5284;50.446;7.904;2023-01-25T10:27:31;99979.66;;;0.61;100.00
10474;BME280;5284;50.446;7.904;2023-01-25T10:32:39;99969.25;;;0.58;100.00
10474;BME280;5284;50.446;7.904;2023-01-25T10:38:01;99959.00;;;0.47;100.00
10474;BME280;5284;50.446;7.904;2023-01-25T10:43:11;99950.66;;;0.67;100.00
10474;BME280;5284;50.446;7.904;2023-01-25T10:48:19;99950.63;;;0.70;100.00
10474;BME280;5284;50.446;7.904;2023-01-25T10:53:27;99936.63;;;0.68;100.00
10474;BME280;5284;50.446;7.904;2023-01-25T10:58:33;99937.50;;;0.70;100.00
10474;BME280;5284;50.446;7.904;2023-01-25T11:03:39;99931.06;;;0.81;100.00
10474;BME280;5284;50.446;7.904;2023-01-25T11:08:43;99923.41;;;0.72;100.00
10474;BME280;5284;50.446;7.904;2023-01-25T11:13:47;99914.41;;;0.82;100.00
10474;BME280;5284;50.446;7.904;2023-01-25T11:18:51;99907.19;;;0.92;100.00
10474;BME280;5284;50.446;7.904;2023-01-25T11:24:01;99903.00;;;0.85;100.00
10474;BME280;5284;50.446;7.904;2023-01-25T11:29:12;99902.13;;;0.84;100.00
10474;BME280;5284;50.446;7.904;2023-01-25T11:34:17;99898.97;;;0.72;100.00
10474;BME280;5284;50.446;7.904;2023-01-25T11:39:33;99885.91;;;0.69;100.00
10474;BME280;5284;50.446;7.904;2023-01-25T11:44:55;99875.34;;;0.72;100.00
10474;BME280;5284;50.446;7.904;2023-01-25T11:50:07;99870.59;;;0.86;100.00
10474;BME280;5284;50.446;7.904;2023-01-25T11:55:22;99861.00;;;0.83;100.00
10474;BME280;5284;50.446;7.904;2023-01-25T12:00:47;99847.53;;;0.97;100.00
10474;BME280;5284;50.446;7.904;2023-01-25T12:05:56;99836.34;;;0.90;100.00
10474;BME280;5284;50.446;7.904;2023-01-25T12:11:06;99820.38;;;0.98;100.00
10474;BME280;5284;50.446;7.904;2023-01-25T12:16:20;99819.91;;;0.82;100.00
10474;BME280;5284;50.446;7.904;2023-01-25T12:21:41;99802.16;;;0.93;100.00
10474;BME280;5284;50.446;7.904;2023-01-25T12:26:56;99798.69;;;0.91;100.00
10474;BME280;5284;50.446;7.904;2023-01-25T12:32:06;99790.03;;;1.20;100.00
10474;BME280;5284;50.446;7.904;2023-01-25T12:37:15;99773.44;;;0.87;100.00
10474;BME280;5284;50.446;7.904;2023-01-25T12:42:23;99766.50;;;0.85;100.00
10474;BME280;5284;50.446;7.904;2023-01-25T12:47:32;99748.03;;;0.56;100.00
10474;BME280;5284;50.446;7.904;2023-01-25T12:52:40;99738.88;;;1.02;100.00
10474;BME280;5284;50.446;7.904;2023-01-25T12:57:54;99732.09;;;0.95;100.00
10474;BME280;5284;50.446;7.904;2023-01-25T13:03:08;99711.47;;;0.80;100.00
10474;BME280;5284;50.446;7.904;2023-01-25T13:08:22;99715.09;;;0.76;100.00
10474;BME280;5284;50.446;7.904;2023-01-25T13:13:34;99713.81;;;0.91;100.00
10474;BME280;5284;50.446;7.904;2023-01-25T13:18:39;99700.78;;;0.88;100.00
10474;BME280;5284;50.446;7.904;2023-01-25T13:23:44;99703.31;;;0.91;100.00
10474;BME280;5284;50.446;7.904;2023-01-25T13:28:50;99704.41;;;0.84;100.00
10474;BME280;5284;50.446;7.904;2023-01-25T13:33:53;99685.13;;;0.85;100.00
10474;BME280;5284;50.446;7.904;2023-01-25T13:38:57;99670.00;;;0.93;100.00
10474;BME280;5284;50.446;7.904;2023-01-25T13:44:19;99649.88;;;0.93;100.00
10474;BME280;5284;50.446;7.904;2023-01-25T13:49:30;99650.97;;;0.86;100.00
10474;BME280;5284;50.446;7.904;2023-01-25T13:54:41;99645.75;;;0.85;100.00
10474;BME280;5284;50.446;7.904;2023-01-25T13:59:46;99638.69;;;0.87;100.00
10474;BME280;5284;50.446;7.904;2023-01-25T14:04:53;99628.31;;;0.82;100.00
10474;BME280;5284;50.446;7.904;2023-01-25T14:09:57;99627.28;;;0.88;100.00
10474;BME280;5284;50.446;7.904;2023-01-25T14:15:22;99597.56;;;0.87;100.00
10474;BME280;5284;50.446;7.904;2023-01-25T14:20:25;99597.00;;;0.76;100.00
10474;BME280;5284;50.446;7.904;2023-01-25T14:25:29;99600.00;;;0.63;100.00
10474;BME280;5284;50.446;7.904;2023-01-25T14:30:34;99598.22;;;0.65;100.00
10474;BME280;5284;50.446;7.904;2023-01-25T14:35:39;99588.47;;;0.70;100.00
10474;BME280;5284;50.446;7.904;2023-01-25T14:40:58;99582.66;;;0.59;100.00
10474;BME280;5284;50.446;7.904;2023-01-25T14:46:19;99578.31;;;0.58;100.00
10474;BME280;5284;50.446;7.904;2023-01-25T14:51:25;99571.44;;;0.54;100.00
10474;BME280;5284;50.446;7.904;2023-01-25T14:56:33;99575.16;;;0.45;100.00
10474;BME280;5284;50.446;7.904;2023-01-25T15:01:40;99568.34;;;0.40;100.00
10474;BME280;5284;50.446;7.904;2023-01-25T15:06:47;99568.72;;;0.26;100.00
10474;BME280;5284;50.446;7.904;2023-01-25T15:11:57;99563.66;;;0.20;100.00
10474;BME280;5284;50.446;7.904;2023-01-25T15:17:02;99570.75;;;0.17;100.00
10474;BME280;5284;50.446;7.904;2023-01-25T15:22:07;99562.97;;;0.14;100.00
10474;BME280;5284;50.446;7.904;2023-01-25T15:27:10;99551.13;;;-0.01;100.00
10474;BME280;5284;50.446;7.904;2023-01-25T15:32:18;99543.25;;;0.01;100.00
10474;BME280;5284;50.446;7.904;2023-01-25T15:37:22;99542.28;;;0.03;100.00
10474;BME280;5284;50.446;7.904;2023-01-25T15:42:25;99532.88;;;-0.05;100.00
10474;BME280;5284;50.446;7.904;2023-01-25T15:47:31;99524.22;;;-0.07;100.00
10474;BME280;5284;50.446;7.904;2023-01-25T15:52:34;99529.63;;;-0.13;100.00
10474;BME280;5284;50.446;7.904;2023-01-25T15:57:37;99518.16;;;-0.09;100.00
10474;BME280;5284;50.446;7.904;2023-01-25T16:02:42;99517.84;;;-0.29;100.00
10474;BME280;5284;50.446;7.904;2023-01-25T16:07:44;99513.38;;;-0.25;100.00
10474;BME280;5284;50.446;7.904;2023-01-25T16:12:48;99511.78;;;-0.31;100.00
10474;BME280;5284;50.446;7.904;2023-01-25T16:17:52;99515.16;;;-0.27;100.00
10474;BME280;5284;50.446;7.904;2023-01-25T16:22:55;99515.81;;;-0.19;100.00
10474;BME280;5284;50.446;7.904;2023-01-25T16:27:58;99505.47;;;-0.24;100.00
10474;BME280;5284;50.446;7.904;2023-01-25T16:33:02;99514.16;;;-0.22;100.00
10474;BME280;5284;50.446;7.904;2023-01-25T16:38:05;99514.28;;;-0.26;100.00
10474;BME280;5284;50.446;7.904;2023-01-25T16:43:08;99515.22;;;-0.29;100.00
10474;BME280;5284;50.446;7.904;2023-01-25T16:48:12;99517.78;;;-0.27;100.00
10474;BME280;5284;50.446;7.904;2023-01-25T16:53:16;99507.59;;;-0.38;100.00
10474;BME280;5284;50.446;7.904;2023-01-25T16:58:19;99508.50;;;-0.39;100.00
10474;BME280;5284;50.446;7.904;2023-01-25T17:03:23;99499.59;;;-0.32;100.00
10474;BME280;5284;50.446;7.904;2023-01-25T17:08:26;99501.31;;;-0.31;100.00
10474;BME280;5284;50.446;7.904;2023-01-25T17:13:29;99495.38;;;-0.37;100.00
10474;BME280;5284;50.446;7.904;2023-01-25T17:18:33;99491.94;;;-0.39;100.00
10474;BME280;5284;50.446;7.904;2023-01-25T17:23:36;99497.97;;;-0.37;100.00
10474;BME280;5284;50.446;7.904;2023-01-25T17:28:40;99499.53;;;-0.30;100.00
10474;BME280;5284;50.446;7.904;2023-01-25T17:33:45;99496.97;;;-0.32;100.00
10474;BME280;5284;50.446;7.904;2023-01-25T17:38:48;99488.28;;;-0.34;100.00
10474;BME280;5284;50.446;7.904;2023-01-25T17:43:51;99481.31;;;-0.35;100.00
10474;BME280;5284;50.446;7.904;2023-01-25T17:48:56;99472.63;;;-0.37;100.00
10474;BME280;5284;50.446;7.904;2023-01-25T17:53:59;99475.41;;;-0.43;100.00
10474;BME280;5284;50.446;7.904;2023-01-25T17:59:02;99452.63;;;-0.39;100.00
10474;BME280;5284;50.446;7.904;2023-01-25T18:04:10;99451.84;;;-0.43;100.00
10474;BME280;5284;50.446;7.904;2023-01-25T18:09:17;99443.88;;;-0.38;100.00
10474;BME280;5284;50.446;7.904;2023-01-25T18:14:20;99443.16;;;-0.45;100.00
10474;BME280;5284;50.446;7.904;2023-01-25T18:19:25;99436.78;;;-0.35;100.00
10474;BME280;5284;50.446;7.904;2023-01-25T18:24:32;99431.50;;;-0.33;100.00
10474;BME280;5284;50.446;7.904;2023-01-25T18:29:43;99430.22;;;-0.49;100.00
10474;BME280;5284;50.446;7.904;2023-01-25T18:34:48;99421.41;;;-0.47;100.00
10474;BME280;5284;50.446;7.904;2023-01-25T18:39:53;99413.53;;;-0.45;100.00
10474;BME280;5284;50.446;7.904;2023-01-25T18:44:56;99417.06;;;-0.48;100.00
10474;BME280;5284;50.446;7.904;2023-01-25T18:50:00;99403.81;;;-0.42;100.00
10474;BME280;5284;50.446;7.904;2023-01-25T18:55:03;99402.25;;;-0.49;100.00
10474;BME280;5284;50.446;7.904;2023-01-25T19:00:09;99396.19;;;-0.49;100.00
10474;BME280;5284;50.446;7.904;2023-01-25T19:05:16;99377.78;;;-0.48;100.00
10474;BME280;5284;50.446;7.904;2023-01-25T19:10:21;99380.56;;;-0.54;100.00
10474;BME280;5284;50.446;7.904;2023-01-25T19:15:24;99375.25;;;-0.51;100.00
10474;BME280;5284;50.446;7.904;2023-01-25T19:20:28;99361.97;;;-0.45;100.00
10474;BME280;5284;50.446;7.904;2023-01-25T19:25:31;99366.50;;;-0.50;100.00
10474;BME280;5284;50.446;7.904;2023-01-25T19:30:34;99355.03;;;-0.46;100.00
10474;BME280;5284;50.446;7.904;2023-01-25T19:35:38;99355.72;;;-0.39;100.00
10474;BME280;5284;50.446;7.904;2023-01-25T19:40:41;99353.94;;;-0.39;100.00
10474;BME280;5284;50.446;7.904;2023-01-25T19:45:44;99354.75;;;-0.37;100.00
10474;BME280;5284;50.446;7.904;2023-01-25T19:50:48;99356.41;;;-0.33;100.00
10474;BME280;5284;50.446;7.904;2023-01-25T19:55:50;99356.53;;;-0.37;100.00
10474;BME280;5284;50.446;7.904;2023-01-25T20:00:53;99352.13;;;-0.37;100.00
10474;BME280;5284;50.446;7.904;2023-01-25T20:05:58;99343.66;;;-0.45;100.00
10474;BME280;5284;50.446;7.904;2023-01-25T20:11:06;99336.91;;;-0.53;100.00
10474;BME280;5284;50.446;7.904;2023-01-25T20:16:10;99334.25;;;-0.52;100.00
10474;BME280;5284;50.446;7.904;2023-01-25T20:21:16;99330.72;;;-0.49;100.00
10474;BME280;5284;50.446;7.904;2023-01-25T20:26:21;99320.53;;;-0.60;100.00
10474;BME280;5284;50.446;7.904;2023-01-25T20:31:26;99320.44;;;-0.57;100.00
10474;BME280;5284;50.446;7.904;2023-01-25T20:36:32;99311.06;;;-0.64;100.00
10474;BME280;5284;50.446;7.904;2023-01-25T20:41:36;99313.59;;;-0.62;100.00
10474;BME280;5284;50.446;7.904;2023-01-25T20:46:40;99304.94;;;-0.64;100.00
10474;BME280;5284;50.446;7.904;2023-01-25T20:51:45;99298.78;;;-0.62;100.00
10474;BME280;5284;50.446;7.904;2023-01-25T20:56:48;99297.19;;;-0.69;100.00
10474;BME280;5284;50.446;7.904;2023-01-25T21:01:51;99292.06;;;-0.72;100.00
10474;BME280;5284;50.446;7.904;2023-01-25T21:06:56;99279.25;;;-0.81;100.00
10474;BME280;5284;50.446;7.904;2023-01-25T21:11:58;99266.78;;;-0.73;100.00
10474;BME280;5284;50.446;7.904;2023-01-25T21:17:02;99260.00;;;-0.80;100.00
10474;BME280;5284;50.446;7.904;2023-01-25T21:22:06;99253.88;;;-0.79;100.00
10474;BME280;5284;50.446;7.904;2023-01-25T21:27:09;99251.47;;;-0.86;100.00
10474;BME280;5284;50.446;7.904;2023-01-25T21:32:12;99244.41;;;-0.83;100.00
10474;BME280;5284;50.446;7.904;2023-01-25T21:37:16;99236.63;;;-0.86;100.00
10474;BME280;5284;50.446;7.904;2023-01-25T21:42:19;99246.75;;;-1.04;100.00
10474;BME280;5284;50.446;7.904;2023-01-25T21:47:22;99243.25;;;-1.03;100.00
10474;BME280;5284;50.446;7.904;2023-01-25T21:52:33;99244.94;;;-1.01;100.00
10474;BME280;5284;50.446;7.904;2023-01-25T21:57:37;99239.84;;;-1.07;100.00
10474;BME280;5284;50.446;7.904;2023-01-25T22:02:46;99228.56;;;-1.09;100.00
10474;BME280;5284;50.446;7.904;2023-01-25T22:07:53;99218.88;;;-1.05;100.00
10474;BME280;5284;50.446;7.904;2023-01-25T22:12:56;99208.63;;;-1.13;100.00
10474;BME280;5284;50.446;7.904;2023-01-25T22:17:59;99207.72;;;-1.12;100.00
10474;BME280;5284;50.446;7.904;2023-01-25T22:23:03;99202.56;;;-1.13;100.00
10474;BME280;5284;50.446;7.904;2023-01-25T22:28:12;99196.63;;;-1.20;100.00
10474;BME280;5284;50.446;7.904;2023-01-25T22:33:15;99210.44;;;-1.15;100.00
10474;BME280;5284;50.446;7.904;2023-01-25T22:38:20;99198.88;;;-1.08;100.00
10474;BME280;5284;50.446;7.904;2023-01-25T22:43:23;99186.69;;;-1.07;100.00
10474;BME280;5284;50.446;7.904;2023-01-25T22:48:26;99179.00;;;-1.13;100.00
10474;BME280;5284;50.446;7.904;2023-01-25T22:53:30;99173.06;;;-1.18;100.00
10474;BME280;5284;50.446;7.904;2023-01-25T22:58:34;99170.44;;;-1.18;100.00
10474;BME280;5284;50.446;7.904;2023-01-25T23:03:38;99167.81;;;-1.18;100.00
10474;BME280;5284;50.446;7.904;2023-01-25T23:08:42;99153.69;;;-1.13;100.00
10474;BME280;5284;50.446;7.904;2023-01-25T23:13:45;99159.91;;;-1.17;100.00
10474;BME280;5284;50.446;7.904;2023-01-25T23:19:09;99154.59;;;-1.14;100.00
10474;BME280;5284;50.446;7.904;2023-01-25T23:24:13;99145.09;;;-1.16;100.00
10474;BME280;5284;50.446;7.904;2023-01-25T23:29:16;99135.28;;;-1.10;100.00
10474;BME280;5284;50.446;7.904;2023-01-25T23:34:19;99131.94;;;-1.13;100.00
10474;BME280;5284;50.446;7.904;2023-01-25T23:39:23;99127.53;;;-1.13;100.00
10474;BME280;5284;50.446;7.904;2023-01-25T23:44:25;99128.63;;;-1.20;100.00
10474;BME280;5284;50.446;7.904;2023-01-25T23:49:28;99130.53;;;-1.25;100.00
10474;BME280;5284;50.446;7.904;2023-01-25T23:54:32;99127.81;;;-1.22;100.00
10474;BME280;5284;50.446;7.904;2023-01-25T23:59:35;99129.66;;;-1.25;100.00
